Fortune Wing — VRHW2 — position and weather

sailwx.info

Track history (hours):
 
Tides and Currents Weather Stations Pressure Air Temp Water Temp Dewpoint Dewpoint Depression Visibility Wind Speed Wind Dir Waves Ship Positions

Fortune Wing

Last reported at 2017-Apr-18 14:52 UTC. Time now 2017-May-23 14:58 UTC.
Position N 37°59' E 122°26'.
Warning: this ship's position is 35 days out of date.

Length 190 m; draft 6.2 m.

Type: Cargo ship. MMSI: 477389500.

Date/timePositionNaut miles runAvg speedWind from/ knotsBaromVisibWave heightAir tempDewpointWater temp
2017-Apr-18 14:52N 37°59' E 122°26'1213.6
2017-Apr-18 14:00N 38°04' E 122°12'713.8
2017-Apr-18 13:30N 38°07' E 122°04'713.8
2017-Apr-18 13:00N 38°10' E 121°57'713.8
2017-Apr-18 12:31N 38°12' E 121°48'713.8
2017-Apr-18 12:00N 38°15' E 121°40'713.7
2017-Apr-18 11:30N 38°18' E 121°33'713.5
2017-Apr-18 11:00N 38°21' E 121°25'713.2
2017-Apr-18 10:30N 38°24' E 121°17'612.9
2017-Apr-18 10:01N 38°27' E 121°10'612.4
2017-Apr-18 09:30N 38°30' E 121°03'612.3
2017-Apr-18 09:00N 38°33' E 120°56'611.0
2017-Apr-18 08:30N 38°37' E 120°51'612.4
2017-Apr-18 08:01N 38°43' E 120°50'  
2017-Apr-08 21:08N 38°28' E 121°15'210.6
2017-Apr-08 20:58N 38°27' E 121°17'910.4
2017-Apr-08 20:07N 38°23' E 121°27'110.9
2017-Apr-08 20:00N 38°22' E 121°28'  
Track history (hours):
 
Tides and Currents Weather Stations Pressure Air Temp Water Temp Dewpoint Dewpoint Depression Visibility Wind Speed Wind Dir Waves Ship Positions

Fortune Wing

Last reported at 2017-Apr-18 14:52 UTC. Time now 2017-May-23 14:58 UTC.
Position N 37°59' E 122°26'.
Warning: this ship's position is 35 days out of date.

Length 190 m; draft 6.2 m.

Type: Cargo ship. MMSI: 477389500.

Date/timePositionNaut miles runAvg speedWind from/ knotsBaromVisibWave heightAir tempDewpointWater temp
2017-Apr-18 14:52N 37°59' E 122°26'1213.6
2017-Apr-18 14:00N 38°04' E 122°12'713.8
2017-Apr-18 13:30N 38°07' E 122°04'713.8
2017-Apr-18 13:00N 38°10' E 121°57'713.8
2017-Apr-18 12:31N 38°12' E 121°48'713.8
2017-Apr-18 12:00N 38°15' E 121°40'713.7
2017-Apr-18 11:30N 38°18' E 121°33'713.5
2017-Apr-18 11:00N 38°21' E 121°25'713.2
2017-Apr-18 10:30N 38°24' E 121°17'612.9
2017-Apr-18 10:01N 38°27' E 121°10'612.4
2017-Apr-18 09:30N 38°30' E 121°03'612.3
2017-Apr-18 09:00N 38°33' E 120°56'611.0
2017-Apr-18 08:30N 38°37' E 120°51'612.4
2017-Apr-18 08:01N 38°43' E 120°50'  
2017-Apr-08 21:08N 38°28' E 121°15'210.6
2017-Apr-08 20:58N 38°27' E 121°17'910.4
2017-Apr-08 20:07N 38°23' E 121°27'110.9
2017-Apr-08 20:00N 38°22' E 121°28'  

Dump ship's entire track history